Time;durP1;ratioP1;P1;durP2;ratioP2;P2;SDS_P1;SDS_P2;PMS_P1;PMS_P2;Temp;Humidity;BMP_temperature;BMP_pressure;BME280_temperature;BME280_humidity;BME280_pressure;Samples;Min_cycle;Max_cycle;Signal;HPM_P1;HPM_P2
2024/04/09 00:01:32;;;;;;;5.70;1.50;;;;;;;;;;10687899;27;20016;-74
2024/04/09 00:06:37;;;;;;;8.65;1.92;;;;;;;;;;10682439;27;20013;-74
2024/04/09 00:11:43;;;;;;;3.47;1.52;;;;;;;;;;10675554;27;20013;-74
2024/04/09 00:16:53;;;;;;;9.00;1.83;;;;;;;;;;10685641;27;20028;-74
2024/04/09 00:21:59;;;;;;;6.78;1.60;;;;;;;;;;10673732;27;20013;-74
2024/04/09 00:27:04;;;;;;;3.60;1.30;;;;;;;;;;10685510;27;20362;-74
2024/04/09 00:32:11;;;;;;;12.97;2.03;;;;;;;;;;10681569;27;20013;-74
2024/04/09 00:37:16;;;;;;;8.55;1.45;;;;;;;;;;10685928;27;20030;-74
2024/04/09 00:42:21;;;;;;;4.70;1.20;;;;;;;;;;10673884;27;20031;-74
2024/04/09 00:47:29;;;;;;;7.32;1.50;;;;;;;;;;10681945;27;20443;-74
2024/04/09 00:52:37;;;;;;;11.00;1.92;;;;;;;;;;10679886;27;20023;-74
2024/04/09 00:57:47;;;;;;;7.70;1.60;;;;;;;;;;10693725;27;20096;-74
2024/04/09 01:02:55;;;;;;;7.47;2.13;;;;;;;;;;10698921;27;20013;-74
2024/04/09 01:08:00;;;;;;;7.25;1.60;;;;;;;;;;10685903;27;20016;-73
2024/04/09 01:13:05;;;;;;;8.20;1.73;;;;;;;;;;10669408;27;20027;-74
2024/04/09 01:18:13;;;;;;;6.38;1.65;;;;;;;;;;10687387;27;20031;-74
2024/04/09 01:23:21;;;;;;;5.15;1.70;;;;;;;;;;10675018;27;20081;-74
2024/04/09 01:28:28;;;;;;;8.70;2.10;;;;;;;;;;10686475;27;20027;-74
2024/04/09 01:33:33;;;;;;;6.13;1.77;;;;;;;;;;10683396;27;20032;-74
2024/04/09 01:38:40;;;;;;;7.00;1.55;;;;;;;;;;10679540;27;20114;-74
2024/04/09 01:43:45;;;;;;;7.57;1.77;;;;;;;;;;10672150;27;20013;-74
2024/04/09 01:48:51;;;;;;;4.13;1.25;;;;;;;;;;10683054;27;20031;-74
2024/04/09 01:53:58;;;;;;;10.10;1.75;;;;;;;;;;10691084;27;20017;-74
2024/04/09 01:59:03;;;;;;;6.80;1.45;;;;;;;;;;10678810;27;20009;-74
2024/04/09 02:04:11;;;;;;;7.75;1.77;;;;;;;;;;10681731;27;20031;-74
2024/04/09 02:09:18;;;;;;;7.35;1.73;;;;;;;;;;10676956;27;20040;-74
2024/04/09 02:14:23;;;;;;;4.78;1.55;;;;;;;;;;10669178;27;20533;-74
2024/04/09 02:19:29;;;;;;;7.72;2.03;;;;;;;;;;10679013;27;20012;-74
2024/04/09 02:24:37;;;;;;;9.48;1.60;;;;;;;;;;10675239;27;20024;-74
2024/04/09 02:29:44;;;;;;;9.77;2.13;;;;;;;;;;10688508;27;20731;-74
2024/04/09 02:34:49;;;;;;;9.30;2.25;;;;;;;;;;10681672;27;20013;-74
2024/04/09 02:39:58;;;;;;;8.57;2.25;;;;;;;;;;10680339;27;20363;-74
2024/04/09 02:45:04;;;;;;;5.88;1.70;;;;;;;;;;10678022;27;20012;-74
2024/04/09 02:50:12;;;;;;;8.33;2.23;;;;;;;;;;10679879;27;20474;-73
2024/04/09 02:55:20;;;;;;;12.77;3.10;;;;;;;;;;10678340;27;20027;-74
2024/04/09 03:00:25;;;;;;;13.82;3.25;;;;;;;;;;10678536;27;20028;-74
2024/04/09 03:05:32;;;;;;;14.63;3.35;;;;;;;;;;10683340;27;20008;-73
2024/04/09 03:10:40;;;;;;;12.07;2.53;;;;;;;;;;10678540;27;20024;-74
2024/04/09 03:15:46;;;;;;;10.48;2.60;;;;;;;;;;10681164;27;20028;-74
2024/04/09 03:20:51;;;;;;;7.80;1.88;;;;;;;;;;10684476;27;20020;-73
2024/04/09 03:25:58;;;;;;;9.75;2.40;;;;;;;;;;10670409;27;20016;-74
2024/04/09 03:31:05;;;;;;;9.80;1.80;;;;;;;;;;10678086;27;20008;-74
2024/04/09 03:36:11;;;;;;;14.25;2.75;;;;;;;;;;10679204;27;20027;-74
2024/04/09 03:41:18;;;;;;;11.70;2.88;;;;;;;;;;10679520;27;20048;-74
2024/04/09 03:46:23;;;;;;;9.45;1.85;;;;;;;;;;10680525;27;20351;-74
2024/04/09 03:51:31;;;;;;;9.55;2.40;;;;;;;;;;10705620;27;20008;-74
2024/04/09 03:56:39;;;;;;;10.03;2.47;;;;;;;;;;10777275;22;20115;-75
2024/04/09 04:01:44;;;;;;;6.15;1.95;;;;;;;;;;10891122;27;20014;-75
2024/04/09 04:06:49;;;;;;;7.80;2.00;;;;;;;;;;10899470;27;20007;-75
2024/04/09 04:11:57;;;;;;;4.13;0.97;;;;;;;;;;10880734;27;20026;-75
2024/04/09 04:17:05;;;;;;;4.20;1.00;;;;;;;;;;10887027;27;20010;-75
2024/04/09 04:22:10;;;;;;;5.22;1.15;;;;;;;;;;10887315;27;20041;-74
2024/04/09 04:27:18;;;;;;;2.58;0.90;;;;;;;;;;10895536;27;20323;-75
2024/04/09 04:32:23;;;;;;;5.43;1.10;;;;;;;;;;10902155;27;20029;-74
2024/04/09 04:37:28;;;;;;;3.42;0.80;;;;;;;;;;10899117;27;20021;-74
2024/04/09 04:42:36;;;;;;;3.13;1.10;;;;;;;;;;10896459;26;20139;-74
2024/04/09 04:47:41;;;;;;;2.75;0.70;;;;;;;;;;10894717;27;20015;-74
2024/04/09 04:52:46;;;;;;;4.07;0.90;;;;;;;;;;10897561;27;20024;-75
2024/04/09 04:57:54;;;;;;;2.28;0.80;;;;;;;;;;10894703;26;20018;-74
2024/04/09 05:02:59;;;;;;;7.63;1.58;;;;;;;;;;10892256;26;20530;-75
2024/04/09 05:08:05;;;;;;;2.95;0.90;;;;;;;;;;10899998;27;20058;-75
2024/04/09 05:13:12;;;;;;;6.03;1.13;;;;;;;;;;10890606;27;20014;-74
2024/04/09 05:18:17;;;;;;;1.95;0.82;;;;;;;;;;10885340;27;20015;-75
2024/04/09 05:23:22;;;;;;;4.82;0.90;;;;;;;;;;10900722;27;20128;-74
2024/04/09 05:28:30;;;;;;;6.85;1.17;;;;;;;;;;10906583;27;20022;-74
2024/04/09 05:33:35;;;;;;;4.18;1.40;;;;;;;;;;10882349;27;20049;-75
2024/04/09 05:38:40;;;;;;;4.60;1.13;;;;;;;;;;10888610;27;20042;-75
2024/04/09 05:43:48;;;;;;;3.92;0.90;;;;;;;;;;10897680;27;20014;-75
2024/04/09 05:48:53;;;;;;;2.53;0.80;;;;;;;;;;10891229;27;20025;-75
2024/04/09 05:53:58;;;;;;;3.40;0.93;;;;;;;;;;10883029;27;20023;-75
2024/04/09 05:59:05;;;;;;;2.45;0.73;;;;;;;;;;10889524;27;20363;-74
2024/04/09 06:04:11;;;;;;;2.33;0.60;;;;;;;;;;10889371;27;20397;-74
2024/04/09 06:09:19;;;;;;;0.60;0.40;;;;;;;;;;10903680;26;20057;-75
2024/04/09 06:14:26;;;;;;;2.35;0.60;;;;;;;;;;10891861;27;20029;-75
2024/04/09 06:19:31;;;;;;;1.38;0.50;;;;;;;;;;10877188;27;20015;-74
2024/04/09 06:24:36;;;;;;;0.93;0.38;;;;;;;;;;10892812;27;20002;-75
2024/04/09 06:29:46;;;;;;;2.78;0.60;;;;;;;;;;10891727;27;20065;-75
2024/04/09 06:34:51;;;;;;;1.75;0.60;;;;;;;;;;10885447;27;20025;-75
2024/04/09 06:39:56;;;;;;;2.25;0.70;;;;;;;;;;10897978;27;20014;-75
2024/04/09 06:45:05;;;;;;;1.23;0.50;;;;;;;;;;10887431;27;20015;-75
2024/04/09 06:50:10;;;;;;;1.42;0.40;;;;;;;;;;10901323;27;20018;-75
2024/04/09 06:55:16;;;;;;;1.02;0.60;;;;;;;;;;10884195;27;20018;-75
2024/04/09 07:00:23;;;;;;;3.20;0.60;;;;;;;;;;10896645;27;20014;-75
2024/04/09 07:05:28;;;;;;;0.75;0.30;;;;;;;;;;10881345;27;20374;-75
2024/04/09 07:10:33;;;;;;;0.93;0.20;;;;;;;;;;10899385;27;20013;-75
2024/04/09 07:15:41;;;;;;;1.13;0.40;;;;;;;;;;10872544;27;20006;-75
2024/04/09 07:20:47;;;;;;;1.55;0.17;;;;;;;;;;10891149;27;20018;-75
2024/04/09 07:25:52;;;;;;;0.93;0.30;;;;;;;;;;10873564;27;20029;-75
2024/04/09 07:31:05;;;;;;;0.70;0.38;;;;;;;;;;10894899;27;20017;-75
2024/04/09 07:36:10;;;;;;;1.13;0.47;;;;;;;;;;10889913;27;20029;-75
2024/04/09 07:41:15;;;;;;;1.23;0.40;;;;;;;;;;10879945;27;20035;-75
2024/04/09 07:46:23;;;;;;;1.30;0.40;;;;;;;;;;10890793;27;20474;-75
2024/04/09 07:51:29;;;;;;;1.00;0.32;;;;;;;;;;10891027;27;20462;-75
2024/04/09 07:56:34;;;;;;;0.53;0.30;;;;;;;;;;10886167;27;20010;-75
2024/04/09 08:01:42;;;;;;;1.52;0.50;;;;;;;;;;10901796;26;20005;-75
2024/04/09 08:06:47;;;;;;;2.03;0.55;;;;;;;;;;10887519;27;20018;-75
2024/04/09 08:11:53;;;;;;;;;;;;;;;;;;10888492;27;20022;-75
2024/04/09 08:17:01;;;;;;;2.30;0.57;;;;;;;;;;10893753;27;19934;-75
2024/04/09 08:22:06;;;;;;;1.25;0.65;;;;;;;;;;10888405;27;20021;-75
2024/04/09 08:27:11;;;;;;;1.33;0.52;;;;;;;;;;10876825;27;20037;-75
2024/04/09 08:32:19;;;;;;;1.65;0.50;;;;;;;;;;10883350;27;20006;-75
2024/04/09 08:37:25;;;;;;;2.00;0.47;;;;;;;;;;10879729;27;20115;-75
2024/04/09 08:42:30;;;;;;;0.70;0.27;;;;;;;;;;10897819;27;20022;-75
2024/04/09 08:47:38;;;;;;;2.15;0.57;;;;;;;;;;10877915;27;20014;-75
2024/04/09 08:52:43;;;;;;;3.20;0.65;;;;;;;;;;10887929;27;20061;-75
2024/04/09 08:57:48;;;;;;;1.75;0.45;;;;;;;;;;10882710;27;20021;-74
2024/04/09 09:02:56;;;;;;;1.17;0.38;;;;;;;;;;10892557;27;20066;-75
2024/04/09 09:08:01;;;;;;;1.15;0.60;;;;;;;;;;10878481;27;20021;-75
2024/04/09 09:13:08;;;;;;;4.80;0.60;;;;;;;;;;10885873;27;20021;-75
2024/04/09 09:18:24;;;;;;;1.75;0.60;;;;;;;;;;10881470;27;20029;-75
2024/04/09 09:23:29;;;;;;;1.15;0.60;;;;;;;;;;10901236;27;20011;-74
2024/04/09 09:28:34;;;;;;;1.45;0.70;;;;;;;;;;10885879;27;20011;-75
2024/04/09 09:33:45;;;;;;;2.30;0.63;;;;;;;;;;10890208;27;20041;-75
2024/04/09 09:38:51;;;;;;;2.60;0.65;;;;;;;;;;10895916;26;20014;-75
2024/04/09 09:43:56;;;;;;;2.70;0.82;;;;;;;;;;10895199;27;20015;-75
2024/04/09 09:49:07;;;;;;;2.72;0.80;;;;;;;;;;10892817;27;20006;-75
2024/04/09 09:54:12;;;;;;;2.20;0.82;;;;;;;;;;10902533;26;20344;-74
2024/04/09 09:59:19;;;;;;;2.25;0.85;;;;;;;;;;10740669;22;20902;-73
2024/04/09 10:04:28;;;;;;;4.55;0.85;;;;;;;;;;10655603;27;20467;-75
2024/04/09 10:09:43;;;;;;;3.17;0.85;;;;;;;;;;10654296;27;20012;-75
2024/04/09 10:14:53;;;;;;;1.50;0.47;;;;;;;;;;10649332;27;20543;-75
2024/04/09 10:20:04;;;;;;;1.38;0.70;;;;;;;;;;10656151;27;20553;-75
2024/04/09 10:25:18;;;;;;;3.60;0.80;;;;;;;;;;10639358;27;20024;-75
2024/04/09 10:30:29;;;;;;;1.23;0.50;;;;;;;;;;10646660;27;20020;-74
2024/04/09 10:35:37;;;;;;;1.20;0.47;;;;;;;;;;10628355;27;20010;-74
2024/04/09 10:40:43;;;;;;;1.88;0.63;;;;;;;;;;10626896;27;20013;-74
2024/04/09 10:45:50;;;;;;;2.72;0.90;;;;;;;;;;10645193;27;20474;-74
2024/04/09 10:50:58;;;;;;;3.08;0.65;;;;;;;;;;10640188;27;20013;-75
2024/04/09 10:56:04;;;;;;;2.08;0.80;;;;;;;;;;10633387;27;20009;-75
2024/04/09 11:01:12;;;;;;;3.13;0.63;;;;;;;;;;10627580;27;20009;-74
2024/04/09 11:06:20;;;;;;;1.92;0.65;;;;;;;;;;10628146;27;20030;-75
2024/04/09 11:11:25;;;;;;;2.63;1.08;;;;;;;;;;10628539;27;20573;-74
2024/04/09 11:16:30;;;;;;;2.80;0.80;;;;;;;;;;10621065;27;20005;-74
2024/04/09 11:21:38;;;;;;;2.10;0.60;;;;;;;;;;10627394;27;20012;-74
2024/04/09 11:26:45;;;;;;;1.75;0.77;;;;;;;;;;10635694;27;20009;-74
2024/04/09 11:31:51;;;;;;;1.05;0.63;;;;;;;;;;10646886;27;20016;-74
2024/04/09 11:36:59;;;;;;;2.08;0.80;;;;;;;;;;10639636;27;20017;-74
2024/04/09 11:42:04;;;;;;;1.80;0.77;;;;;;;;;;10625244;27;20025;-74
2024/04/09 11:47:09;;;;;;;1.77;0.70;;;;;;;;;;10616585;27;20009;-74
2024/04/09 11:52:17;;;;;;;2.50;0.70;;;;;;;;;;10653030;27;20027;-74
2024/04/09 11:57:22;;;;;;;5.45;1.00;;;;;;;;;;10639123;27;20367;-74
2024/04/09 12:02:27;;;;;;;2.83;1.00;;;;;;;;;;10628787;27;20486;-74
2024/04/09 12:07:35;;;;;;;2.88;0.77;;;;;;;;;;10627846;27;20355;-74
2024/04/09 12:12:41;;;;;;;4.88;0.95;;;;;;;;;;10622042;27;20009;-74
2024/04/09 12:17:46;;;;;;;3.17;0.70;;;;;;;;;;10625865;27;20100;-74
2024/04/09 12:22:53;;;;;;;2.42;1.02;;;;;;;;;;10631866;27;20053;-74
2024/04/09 12:27:58;;;;;;;2.58;0.40;;;;;;;;;;10626823;27;20028;-74
2024/04/09 12:33:05;;;;;;;2.85;0.80;;;;;;;;;;10628791;27;20013;-74
2024/04/09 12:38:14;;;;;;;1.67;0.77;;;;;;;;;;10620044;27;20013;-74
2024/04/09 12:43:19;;;;;;;1.88;0.73;;;;;;;;;;10626196;27;20027;-74
2024/04/09 12:48:24;;;;;;;2.08;0.65;;;;;;;;;;10629792;27;20660;-74
2024/04/09 12:53:32;;;;;;;1.70;0.43;;;;;;;;;;10635364;27;20128;-74
2024/04/09 12:58:38;;;;;;;1.20;0.50;;;;;;;;;;10646890;27;20466;-74
2024/04/09 13:03:43;;;;;;;2.80;0.90;;;;;;;;;;10653051;27;20364;-74
2024/04/09 13:08:52;;;;;;;3.75;1.20;;;;;;;;;;10633669;27;20347;-74
2024/04/09 13:13:57;;;;;;;2.58;1.10;;;;;;;;;;10633206;27;20604;-74
2024/04/09 13:19:03;;;;;;;1.98;0.70;;;;;;;;;;10652132;27;20016;-74
2024/04/09 13:24:11;;;;;;;4.45;1.23;;;;;;;;;;10646166;27;20028;-74
2024/04/09 13:29:16;;;;;;;3.75;1.05;;;;;;;;;;10652519;27;20031;-73
2024/04/09 13:34:21;;;;;;;3.90;0.93;;;;;;;;;;10655358;27;20426;-74
2024/04/09 13:39:29;;;;;;;2.47;1.10;;;;;;;;;;10648643;27;20125;-74
2024/04/09 13:44:35;;;;;;;2.88;0.75;;;;;;;;;;10652873;27;20013;-73
2024/04/09 13:49:40;;;;;;;2.40;0.82;;;;;;;;;;10662460;27;20013;-74
2024/04/09 13:54:49;;;;;;;2.25;0.93;;;;;;;;;;10641999;27;20024;-74
2024/04/09 13:59:54;;;;;;;1.83;0.65;;;;;;;;;;10638369;27;20017;-74
2024/04/09 14:05:00;;;;;;;3.03;0.80;;;;;;;;;;10648698;27;20019;-74
2024/04/09 14:10:09;;;;;;;2.00;0.50;;;;;;;;;;10653354;27;20099;-74
2024/04/09 14:15:15;;;;;;;2.45;0.88;;;;;;;;;;10636981;27;20017;-73
2024/04/09 14:20:20;;;;;;;2.70;0.80;;;;;;;;;;10637283;27;20031;-73
2024/04/09 14:25:27;;;;;;;5.07;1.00;;;;;;;;;;10634154;27;20097;-73
2024/04/09 14:30:33;;;;;;;2.65;0.80;;;;;;;;;;10635126;27;20009;-74
2024/04/09 14:35:38;;;;;;;4.30;1.00;;;;;;;;;;10637252;27;20017;-73
2024/04/09 14:40:47;;;;;;;4.95;1.10;;;;;;;;;;10642015;27;20013;-74
2024/04/09 14:45:52;;;;;;;3.47;0.77;;;;;;;;;;10632659;27;20358;-73
2024/04/09 14:50:57;;;;;;;2.60;0.70;;;;;;;;;;10621794;27;20009;-73
2024/04/09 14:56:05;;;;;;;3.95;1.02;;;;;;;;;;10628468;27;20027;-73
2024/04/09 15:01:10;;;;;;;4.32;0.90;;;;;;;;;;10622407;27;20009;-73
2024/04/09 15:06:15;;;;;;;2.30;0.70;;;;;;;;;;10630203;27;20060;-73
2024/04/09 15:11:23;;;;;;;4.95;1.45;;;;;;;;;;10622830;27;20470;-73
2024/04/09 15:16:29;;;;;;;1.90;0.90;;;;;;;;;;10627367;27;20013;-73
2024/04/09 15:21:34;;;;;;;5.57;1.23;;;;;;;;;;10624785;27;20037;-73
2024/04/09 15:26:41;;;;;;;3.58;1.35;;;;;;;;;;10622837;27;20013;-73
2024/04/09 15:31:47;;;;;;;2.95;0.75;;;;;;;;;;10628690;27;23317;-73
2024/04/09 15:36:52;;;;;;;1.42;0.65;;;;;;;;;;10618575;27;20017;-73
2024/04/09 15:42:00;;;;;;;1.77;0.68;;;;;;;;;;10629566;27;20015;-73
2024/04/09 15:47:05;;;;;;;2.10;0.60;;;;;;;;;;10629172;27;20016;-73
2024/04/09 15:52:10;;;;;;;3.53;0.88;;;;;;;;;;10630500;27;20053;-73
2024/04/09 15:57:18;;;;;;;3.70;0.85;;;;;;;;;;10669834;22;20019;-75
2024/04/09 16:02:23;;;;;;;3.65;1.00;;;;;;;;;;10688161;27;20030;-75
2024/04/09 16:07:28;;;;;;;3.10;1.15;;;;;;;;;;10677290;27;20023;-75
2024/04/09 16:12:36;;;;;;;3.28;1.25;;;;;;;;;;10693448;27;20361;-75
2024/04/09 16:17:42;;;;;;;4.57;1.20;;;;;;;;;;10697355;27;20363;-75
2024/04/09 16:22:47;;;;;;;2.33;0.80;;;;;;;;;;10657898;27;20389;-75
2024/04/09 16:27:57;;;;;;;3.85;1.02;;;;;;;;;;10702529;27;20090;-75
2024/04/09 16:33:02;;;;;;;3.00;0.60;;;;;;;;;;10691528;27;20013;-75
2024/04/09 16:38:07;;;;;;;4.57;1.45;;;;;;;;;;10677645;27;20025;-75
2024/04/09 16:43:15;;;;;;;1.58;0.70;;;;;;;;;;10662532;27;20013;-75
2024/04/09 16:48:20;;;;;;;2.40;1.20;;;;;;;;;;10689526;27;20027;-75
2024/04/09 16:53:25;;;;;;;2.35;0.88;;;;;;;;;;10714153;27;20021;-75
2024/04/09 16:58:33;;;;;;;1.65;0.55;;;;;;;;;;10690639;27;20020;-75
2024/04/09 17:03:39;;;;;;;4.50;1.20;;;;;;;;;;10690376;27;20341;-75
2024/04/09 17:08:44;;;;;;;3.43;0.73;;;;;;;;;;10694085;27;20068;-75
2024/04/09 17:13:52;;;;;;;1.90;0.88;;;;;;;;;;10688973;27;20016;-75
2024/04/09 17:18:58;;;;;;;4.50;1.48;;;;;;;;;;10660678;27;20024;-75
2024/04/09 17:24:04;;;;;;;2.80;0.85;;;;;;;;;;10694071;27;20044;-75
2024/04/09 17:29:12;;;;;;;0.80;0.60;;;;;;;;;;10690749;27;20031;-75
2024/04/09 17:34:17;;;;;;;1.58;0.73;;;;;;;;;;10712537;27;20034;-75
2024/04/09 17:39:23;;;;;;;2.30;0.82;;;;;;;;;;10674542;27;20009;-75
2024/04/09 17:44:33;;;;;;;2.38;0.88;;;;;;;;;;10688746;27;20032;-75
2024/04/09 17:49:38;;;;;;;3.40;1.00;;;;;;;;;;10692222;27;20099;-75
2024/04/09 17:54:43;;;;;;;2.38;1.15;;;;;;;;;;10698398;27;20013;-75
2024/04/09 17:59:52;;;;;;;2.08;0.93;;;;;;;;;;10697427;27;20012;-76
2024/04/09 18:04:58;;;;;;;3.63;1.05;;;;;;;;;;10695335;27;20016;-76
2024/04/09 18:10:04;;;;;;;3.03;0.83;;;;;;;;;;10714171;27;20521;-75
2024/04/09 18:15:12;;;;;;;2.20;0.93;;;;;;;;;;10699450;27;20349;-75
2024/04/09 18:20:17;;;;;;;1.35;0.70;;;;;;;;;;10670203;27;20025;-75
2024/04/09 18:25:22;;;;;;;3.03;1.08;;;;;;;;;;10698275;27;20887;-75
2024/04/09 18:30:30;;;;;;;2.63;0.90;;;;;;;;;;10699403;27;20016;-75
2024/04/09 18:35:35;;;;;;;2.08;0.90;;;;;;;;;;10692673;27;20012;-75
2024/04/09 18:40:40;;;;;;;5.43;1.00;;;;;;;;;;10693622;27;20013;-75
2024/04/09 18:45:48;;;;;;;2.33;0.90;;;;;;;;;;10659790;27;20096;-75
2024/04/09 18:50:54;;;;;;;2.20;0.70;;;;;;;;;;10691601;27;20083;-75
2024/04/09 18:55:59;;;;;;;1.75;0.90;;;;;;;;;;10699398;27;20013;-75
2024/04/09 19:01:07;;;;;;;4.18;1.05;;;;;;;;;;10656091;27;24059;-75
2024/04/09 19:06:12;;;;;;;4.72;1.30;;;;;;;;;;10712876;27;20024;-76
2024/04/09 19:11:18;;;;;;;3.67;1.13;;;;;;;;;;10702345;27;20478;-76
2024/04/09 19:16:25;;;;;;;5.27;1.30;;;;;;;;;;10663262;27;20008;-75
2024/04/09 19:21:30;;;;;;;1.85;0.90;;;;;;;;;;10695859;27;20095;-75
2024/04/09 19:26:35;;;;;;;1.75;0.73;;;;;;;;;;10688933;27;20024;-75
2024/04/09 19:31:43;;;;;;;3.05;0.70;;;;;;;;;;10690555;27;20016;-75
2024/04/09 19:36:48;;;;;;;2.88;0.88;;;;;;;;;;10662138;27;20433;-74
2024/04/09 19:41:53;;;;;;;2.70;1.00;;;;;;;;;;10705391;27;20016;-74
2024/04/09 19:47:02;;;;;;;2.75;0.68;;;;;;;;;;10704144;27;20027;-74
2024/04/09 19:52:08;;;;;;;3.13;0.85;;;;;;;;;;10694806;27;20101;-74
2024/04/09 19:57:14;;;;;;;3.33;0.73;;;;;;;;;;10695013;27;20391;-74
2024/04/09 20:02:24;;;;;;;2.53;1.05;;;;;;;;;;10688340;27;20477;-74
2024/04/09 20:07:29;;;;;;;0.75;0.50;;;;;;;;;;10665795;27;20015;-74
2024/04/09 20:12:35;;;;;;;2.20;0.75;;;;;;;;;;10684068;27;20012;-74
2024/04/09 20:17:43;;;;;;;1.67;0.60;;;;;;;;;;10675384;27;20023;-74
2024/04/09 20:22:48;;;;;;;1.92;0.60;;;;;;;;;;10696327;27;20482;-74
2024/04/09 20:27:53;;;;;;;1.90;0.60;;;;;;;;;;10701320;27;20042;-74
2024/04/09 20:33:01;;;;;;;2.00;0.70;;;;;;;;;;10694419;27;20009;-74
2024/04/09 20:38:07;;;;;;;1.02;0.60;;;;;;;;;;10696766;27;20023;-74
2024/04/09 20:43:12;;;;;;;;;;;;;;;;;;10693638;27;20012;-74
2024/04/09 20:48:20;;;;;;;2.95;1.05;;;;;;;;;;10696064;27;19928;-74
2024/04/09 20:53:25;;;;;;;2.00;0.90;;;;;;;;;;10691276;27;20016;-74
2024/04/09 20:58:30;;;;;;;2.57;0.80;;;;;;;;;;10660314;27;20016;-74
2024/04/09 21:03:38;;;;;;;2.30;0.65;;;;;;;;;;10665350;27;20870;-73
2024/04/09 21:08:43;;;;;;;4.05;1.10;;;;;;;;;;10697542;27;20027;-73
2024/04/09 21:13:48;;;;;;;3.47;1.00;;;;;;;;;;10696847;27;20009;-73
2024/04/09 21:18:56;;;;;;;2.22;0.73;;;;;;;;;;10701575;27;20016;-74
2024/04/09 21:24:02;;;;;;;1.08;0.60;;;;;;;;;;10670510;27;20012;-74
2024/04/09 21:29:07;;;;;;;;;;;;;;;;;;10697512;27;20024;-73
2024/04/09 21:34:15;;;;;;;1.70;0.82;;;;;;;;;;10669197;27;19964;-74
2024/04/09 21:39:20;;;;;;;2.47;0.65;;;;;;;;;;10708507;27;20024;-74
2024/04/09 21:44:25;;;;;;;2.25;0.60;;;;;;;;;;10705407;27;20600;-74
2024/04/09 21:49:33;;;;;;;1.20;0.40;;;;;;;;;;10707331;27;20022;-74
2024/04/09 21:54:38;;;;;;;1.17;0.40;;;;;;;;;;10670786;27;20008;-74
2024/04/09 21:59:43;;;;;;;1.48;0.50;;;;;;;;;;10666759;22;20024;-74
2024/04/09 22:04:51;;;;;;;5.20;0.85;;;;;;;;;;10612347;27;20013;-74
2024/04/09 22:09:56;;;;;;;1.67;0.70;;;;;;;;;;10637814;27;20017;-74
2024/04/09 22:15:01;;;;;;;2.72;0.50;;;;;;;;;;10621300;27;20028;-74
2024/04/09 22:20:10;;;;;;;1.00;0.43;;;;;;;;;;10626717;27;20473;-74
2024/04/09 22:25:15;;;;;;;1.50;0.50;;;;;;;;;;10623082;27;20013;-74
2024/04/09 22:30:20;;;;;;;0.98;0.25;;;;;;;;;;10635823;27;20013;-74
2024/04/09 22:35:28;;;;;;;0.57;0.28;;;;;;;;;;10628234;27;20013;-73
2024/04/09 22:40:33;;;;;;;1.67;0.30;;;;;;;;;;10623469;27;20009;-74
2024/04/09 22:45:38;;;;;;;1.85;0.25;;;;;;;;;;10621346;27;20013;-73
2024/04/09 22:50:46;;;;;;;2.13;0.60;;;;;;;;;;10628285;27;20507;-74
2024/04/09 22:55:56;;;;;;;1.75;0.52;;;;;;;;;;10632616;27;20013;-74
2024/04/09 23:01:04;;;;;;;0.45;0.20;;;;;;;;;;10612296;27;20117;-74
2024/04/09 23:06:12;;;;;;;2.15;0.40;;;;;;;;;;10624353;27;20020;-74
2024/04/09 23:11:17;;;;;;;1.35;0.50;;;;;;;;;;10630506;27;20048;-74
2024/04/09 23:16:22;;;;;;;0.93;0.43;;;;;;;;;;10629197;27;20020;-73
2024/04/09 23:21:30;;;;;;;2.63;0.63;;;;;;;;;;10624140;27;20009;-73
2024/04/09 23:26:35;;;;;;;2.25;0.73;;;;;;;;;;10617285;27;20028;-74
2024/04/09 23:31:40;;;;;;;2.28;0.80;;;;;;;;;;10615752;27;20024;-74
2024/04/09 23:36:48;;;;;;;1.75;0.70;;;;;;;;;;10631827;27;20009;-73
2024/04/09 23:41:53;;;;;;;3.58;0.80;;;;;;;;;;10618039;27;20028;-74
2024/04/09 23:47:03;;;;;;;2.15;0.60;;;;;;;;;;10607963;27;20018;-73
2024/04/09 23:52:10;;;;;;;2.35;0.73;;;;;;;;;;10610169;27;20024;-74
2024/04/09 23:57:15;;;;;;;1.98;0.57;;;;;;;;;;10620636;27;20565;-73
